sensor_id;sensor_type;location;lat;lon;timestamp;temperature;humidity
33508;DHT22;25568;37.410;-122.096;2023-12-04T00:02:19;18.80;83.60
33508;DHT22;25568;37.410;-122.096;2023-12-04T00:04:56;18.80;83.60
33508;DHT22;25568;37.410;-122.096;2023-12-04T00:07:54;18.80;83.50
33508;DHT22;25568;37.410;-122.096;2023-12-04T00:10:26;18.80;83.50
33508;DHT22;25568;37.410;-122.096;2023-12-04T00:13:03;18.80;83.50
33508;DHT22;25568;37.410;-122.096;2023-12-04T00:15:35;18.80;83.40
33508;DHT22;25568;37.410;-122.096;2023-12-04T00:18:05;18.80;83.30
33508;DHT22;25568;37.410;-122.096;2023-12-04T00:20:42;18.80;83.30
33508;DHT22;25568;37.410;-122.096;2023-12-04T00:23:11;18.80;83.20
33508;DHT22;25568;37.410;-122.096;2023-12-04T00:25:41;18.80;83.30
33508;DHT22;25568;37.410;-122.096;2023-12-04T00:28:13;18.80;83.10
33508;DHT22;25568;37.410;-122.096;2023-12-04T00:30:44;18.80;83.00
33508;DHT22;25568;37.410;-122.096;2023-12-04T00:33:14;18.80;83.00
33508;DHT22;25568;37.410;-122.096;2023-12-04T00:35:45;18.90;83.00
33508;DHT22;25568;37.410;-122.096;2023-12-04T00:38:15;18.80;83.00
33508;DHT22;25568;37.410;-122.096;2023-12-04T00:40:50;18.80;83.00
33508;DHT22;25568;37.410;-122.096;2023-12-04T00:43:27;18.80;83.00
33508;DHT22;25568;37.410;-122.096;2023-12-04T00:45:59;18.80;83.00
33508;DHT22;25568;37.410;-122.096;2023-12-04T00:48:34;18.80;83.00
33508;DHT22;25568;37.410;-122.096;2023-12-04T00:51:10;18.80;83.00
33508;DHT22;25568;37.410;-122.096;2023-12-04T00:53:43;18.80;83.00
33508;DHT22;25568;37.410;-122.096;2023-12-04T00:56:13;18.80;82.90
33508;DHT22;25568;37.410;-122.096;2023-12-04T00:59:00;18.80;82.80
33508;DHT22;25568;37.410;-122.096;2023-12-04T01:01:44;18.80;82.90
33508;DHT22;25568;37.410;-122.096;2023-12-04T01:04:17;18.80;82.80
33508;DHT22;25568;37.410;-122.096;2023-12-04T01:06:50;18.80;82.70
33508;DHT22;25568;37.410;-122.096;2023-12-04T01:09:29;18.90;82.70
33508;DHT22;25568;37.410;-122.096;2023-12-04T01:12:21;18.80;82.70
33508;DHT22;25568;37.410;-122.096;2023-12-04T01:14:56;18.80;82.60
33508;DHT22;25568;37.410;-122.096;2023-12-04T01:17:33;18.80;82.50
33508;DHT22;25568;37.410;-122.096;2023-12-04T01:20:19;18.80;82.50
33508;DHT22;25568;37.410;-122.096;2023-12-04T01:23:06;18.80;82.50
33508;DHT22;25568;37.410;-122.096;2023-12-04T01:25:40;18.80;82.50
33508;DHT22;25568;37.410;-122.096;2023-12-04T01:28:17;18.80;82.50
33508;DHT22;25568;37.410;-122.096;2023-12-04T01:30:47;18.90;84.30
33508;DHT22;25568;37.410;-122.096;2023-12-04T01:33:23;18.90;84.40
33508;DHT22;25568;37.410;-122.096;2023-12-04T01:36:00;18.90;85.40
33508;DHT22;25568;37.410;-122.096;2023-12-04T01:38:33;19.00;85.60
33508;DHT22;25568;37.410;-122.096;2023-12-04T01:41:07;19.00;85.90
33508;DHT22;25568;37.410;-122.096;2023-12-04T01:43:40;19.00;86.00
33508;DHT22;25568;37.410;-122.096;2023-12-04T01:46:15;19.10;85.80
33508;DHT22;25568;37.410;-122.096;2023-12-04T01:48:53;19.10;85.90
33508;DHT22;25568;37.410;-122.096;2023-12-04T01:51:24;19.10;85.90
33508;DHT22;25568;37.410;-122.096;2023-12-04T01:54:01;19.10;86.30
33508;DHT22;25568;37.410;-122.096;2023-12-04T01:56:36;19.10;86.20
33508;DHT22;25568;37.410;-122.096;2023-12-04T01:59:06;19.10;86.00
33508;DHT22;25568;37.410;-122.096;2023-12-04T02:01:42;19.20;86.10
33508;DHT22;25568;37.410;-122.096;2023-12-04T02:04:12;19.20;86.10
33508;DHT22;25568;37.410;-122.096;2023-12-04T02:06:41;19.20;86.40
33508;DHT22;25568;37.410;-122.096;2023-12-04T02:09:16;19.20;86.50
33508;DHT22;25568;37.410;-122.096;2023-12-04T02:12:05;19.20;86.70
33508;DHT22;25568;37.410;-122.096;2023-12-04T02:14:37;19.30;86.30
33508;DHT22;25568;37.410;-122.096;2023-12-04T02:17:14;19.30;85.80
33508;DHT22;25568;37.410;-122.096;2023-12-04T02:19:49;19.30;85.70
33508;DHT22;25568;37.410;-122.096;2023-12-04T02:22:19;19.20;85.30
33508;DHT22;25568;37.410;-122.096;2023-12-04T02:25:13;19.20;85.40
33508;DHT22;25568;37.410;-122.096;2023-12-04T02:28:18;19.20;86.30
33508;DHT22;25568;37.410;-122.096;2023-12-04T02:30:55;19.20;85.80
33508;DHT22;25568;37.410;-122.096;2023-12-04T02:33:37;19.20;85.50
33508;DHT22;25568;37.410;-122.096;2023-12-04T02:36:16;19.30;85.50
33508;DHT22;25568;37.410;-122.096;2023-12-04T02:38:46;19.30;85.60
33508;DHT22;25568;37.410;-122.096;2023-12-04T02:41:22;19.30;85.60
33508;DHT22;25568;37.410;-122.096;2023-12-04T02:43:53;19.30;85.60
33508;DHT22;25568;37.410;-122.096;2023-12-04T02:46:29;19.30;85.60
33508;DHT22;25568;37.410;-122.096;2023-12-04T02:52:08;19.30;85.60
33508;DHT22;25568;37.410;-122.096;2023-12-04T02:54:52;19.30;85.80
33508;DHT22;25568;37.410;-122.096;2023-12-04T03:31:38;19.30;85.90
33508;DHT22;25568;37.410;-122.096;2023-12-04T03:34:24;19.30;86.30
33508;DHT22;25568;37.410;-122.096;2023-12-04T03:36:56;19.30;86.00
33508;DHT22;25568;37.410;-122.096;2023-12-04T03:39:32;19.30;86.10
33508;DHT22;25568;37.410;-122.096;2023-12-04T03:42:52;19.30;86.10
33508;DHT22;25568;37.410;-122.096;2023-12-04T03:49:09;19.30;86.10
33508;DHT22;25568;37.410;-122.096;2023-12-04T03:51:54;19.30;86.20
33508;DHT22;25568;37.410;-122.096;2023-12-04T03:54:31;19.30;86.10
33508;DHT22;25568;37.410;-122.096;2023-12-04T03:57:14;19.30;86.10
33508;DHT22;25568;37.410;-122.096;2023-12-04T03:59:51;19.30;86.10
33508;DHT22;25568;37.410;-122.096;2023-12-04T04:02:21;19.30;86.10
33508;DHT22;25568;37.410;-122.096;2023-12-04T04:07:48;19.30;86.10
33508;DHT22;25568;37.410;-122.096;2023-12-04T04:10:20;19.30;86.10
33508;DHT22;25568;37.410;-122.096;2023-12-04T04:12:58;19.30;86.30
33508;DHT22;25568;37.410;-122.096;2023-12-04T04:15:38;19.30;86.30
33508;DHT22;25568;37.410;-122.096;2023-12-04T04:18:11;19.30;86.20
33508;DHT22;25568;37.410;-122.096;2023-12-04T04:20:54;19.30;86.10
33508;DHT22;25568;37.410;-122.096;2023-12-04T04:23:28;19.30;86.20
33508;DHT22;25568;37.410;-122.096;2023-12-04T04:26:13;19.30;86.20
33508;DHT22;25568;37.410;-122.096;2023-12-04T04:28:44;19.40;86.10
33508;DHT22;25568;37.410;-122.096;2023-12-04T04:31:19;19.40;85.80
33508;DHT22;25568;37.410;-122.096;2023-12-04T04:33:57;19.40;85.80
33508;DHT22;25568;37.410;-122.096;2023-12-04T04:36:45;19.40;85.80
33508;DHT22;25568;37.410;-122.096;2023-12-04T04:39:42;19.40;85.60
33508;DHT22;25568;37.410;-122.096;2023-12-04T04:42:21;19.40;85.60
33508;DHT22;25568;37.410;-122.096;2023-12-04T04:44:51;19.40;85.60
33508;DHT22;25568;37.410;-122.096;2023-12-04T04:47:20;19.40;85.40
33508;DHT22;25568;37.410;-122.096;2023-12-04T04:49:53;19.30;85.30
33508;DHT22;25568;37.410;-122.096;2023-12-04T04:52:24;19.40;85.40
33508;DHT22;25568;37.410;-122.096;2023-12-04T04:54:54;19.40;85.30
33508;DHT22;25568;37.410;-122.096;2023-12-04T04:57:23;19.40;85.20
33508;DHT22;25568;37.410;-122.096;2023-12-04T04:59:53;19.40;85.10
33508;DHT22;25568;37.410;-122.096;2023-12-04T05:02:22;19.40;85.00
33508;DHT22;25568;37.410;-122.096;2023-12-04T05:04:51;19.40;85.10
33508;DHT22;25568;37.410;-122.096;2023-12-04T05:07:21;19.40;85.00
33508;DHT22;25568;37.410;-122.096;2023-12-04T05:10:00;19.40;85.10
33508;DHT22;25568;37.410;-122.096;2023-12-04T05:12:34;19.30;85.10
33508;DHT22;25568;37.410;-122.096;2023-12-04T05:15:08;19.30;85.00
33508;DHT22;25568;37.410;-122.096;2023-12-04T05:17:43;19.30;85.00
33508;DHT22;25568;37.410;-122.096;2023-12-04T05:20:16;19.30;85.00
33508;DHT22;25568;37.410;-122.096;2023-12-04T05:22:46;19.30;85.20
33508;DHT22;25568;37.410;-122.096;2023-12-04T05:25:23;19.30;85.30
33508;DHT22;25568;37.410;-122.096;2023-12-04T05:27:55;19.30;85.30
33508;DHT22;25568;37.410;-122.096;2023-12-04T05:30:27;19.30;85.40
33508;DHT22;25568;37.410;-122.096;2023-12-04T05:32:57;19.30;85.40
33508;DHT22;25568;37.410;-122.096;2023-12-04T05:35:29;19.30;85.40
33508;DHT22;25568;37.410;-122.096;2023-12-04T05:38:01;19.30;85.60
33508;DHT22;25568;37.410;-122.096;2023-12-04T05:40:33;19.30;85.60
33508;DHT22;25568;37.410;-122.096;2023-12-04T05:43:02;19.30;85.50
33508;DHT22;25568;37.410;-122.096;2023-12-04T05:45:34;19.30;85.50
33508;DHT22;25568;37.410;-122.096;2023-12-04T05:48:06;19.30;85.50
33508;DHT22;25568;37.410;-122.096;2023-12-04T05:50:36;19.30;85.40
33508;DHT22;25568;37.410;-122.096;2023-12-04T05:53:06;19.30;85.40
33508;DHT22;25568;37.410;-122.096;2023-12-04T05:55:38;19.30;85.80
33508;DHT22;25568;37.410;-122.096;2023-12-04T05:58:08;19.20;85.60
33508;DHT22;25568;37.410;-122.096;2023-12-04T06:00:37;19.20;85.60
33508;DHT22;25568;37.410;-122.096;2023-12-04T06:03:06;19.20;85.60
33508;DHT22;25568;37.410;-122.096;2023-12-04T06:05:36;19.30;85.40
33508;DHT22;25568;37.410;-122.096;2023-12-04T06:08:05;19.20;85.60
33508;DHT22;25568;37.410;-122.096;2023-12-04T06:10:37;19.20;85.90
33508;DHT22;25568;37.410;-122.096;2023-12-04T06:13:06;19.20;85.90
33508;DHT22;25568;37.410;-122.096;2023-12-04T06:15:36;19.20;86.20
33508;DHT22;25568;37.410;-122.096;2023-12-04T06:18:07;19.20;86.10
33508;DHT22;25568;37.410;-122.096;2023-12-04T06:20:38;19.20;86.00
33508;DHT22;25568;37.410;-122.096;2023-12-04T06:23:14;19.20;86.30
33508;DHT22;25568;37.410;-122.096;2023-12-04T06:25:54;19.20;86.10
33508;DHT22;25568;37.410;-122.096;2023-12-04T06:28:24;19.20;86.10
33508;DHT22;25568;37.410;-122.096;2023-12-04T06:30:56;19.20;85.90
33508;DHT22;25568;37.410;-122.096;2023-12-04T06:33:26;19.10;85.80
33508;DHT22;25568;37.410;-122.096;2023-12-04T06:35:56;19.10;85.80
33508;DHT22;25568;37.410;-122.096;2023-12-04T06:38:26;19.10;85.80
33508;DHT22;25568;37.410;-122.096;2023-12-04T06:41:02;19.10;85.80
33508;DHT22;25568;37.410;-122.096;2023-12-04T06:43:35;19.10;85.80
33508;DHT22;25568;37.410;-122.096;2023-12-04T06:46:12;19.10;85.70
33508;DHT22;25568;37.410;-122.096;2023-12-04T06:48:44;19.10;85.60
33508;DHT22;25568;37.410;-122.096;2023-12-04T06:51:13;19.10;85.50
33508;DHT22;25568;37.410;-122.096;2023-12-04T06:53:43;19.10;85.60
33508;DHT22;25568;37.410;-122.096;2023-12-04T06:56:15;19.10;85.60
33508;DHT22;25568;37.410;-122.096;2023-12-04T06:58:47;19.10;85.60
33508;DHT22;25568;37.410;-122.096;2023-12-04T07:01:17;19.10;85.50
33508;DHT22;25568;37.410;-122.096;2023-12-04T07:03:46;19.10;86.30
33508;DHT22;25568;37.410;-122.096;2023-12-04T07:06:16;19.00;85.30
33508;DHT22;25568;37.410;-122.096;2023-12-04T07:08:45;19.00;85.40
33508;DHT22;25568;37.410;-122.096;2023-12-04T07:11:17;19.10;85.60
33508;DHT22;25568;37.410;-122.096;2023-12-04T07:13:48;19.00;85.60
33508;DHT22;25568;37.410;-122.096;2023-12-04T07:16:18;19.00;85.60
33508;DHT22;25568;37.410;-122.096;2023-12-04T07:18:50;19.00;85.60
33508;DHT22;25568;37.410;-122.096;2023-12-04T07:21:19;19.10;85.50
33508;DHT22;25568;37.410;-122.096;2023-12-04T07:23:50;19.10;85.60
33508;DHT22;25568;37.410;-122.096;2023-12-04T07:26:21;19.10;85.60
33508;DHT22;25568;37.410;-122.096;2023-12-04T07:28:54;19.10;85.60
33508;DHT22;25568;37.410;-122.096;2023-12-04T07:31:23;19.10;85.80
33508;DHT22;25568;37.410;-122.096;2023-12-04T07:33:53;19.10;85.50
33508;DHT22;25568;37.410;-122.096;2023-12-04T07:36:29;19.10;86.00
33508;DHT22;25568;37.410;-122.096;2023-12-04T07:38:59;19.10;86.60
33508;DHT22;25568;37.410;-122.096;2023-12-04T07:41:30;19.10;86.20
33508;DHT22;25568;37.410;-122.096;2023-12-04T07:44:00;19.10;86.20
33508;DHT22;25568;37.410;-122.096;2023-12-04T07:49:15;19.10;86.40
33508;DHT22;25568;37.410;-122.096;2023-12-04T07:51:44;19.10;86.30
33508;DHT22;25568;37.410;-122.096;2023-12-04T07:54:13;19.10;86.40
33508;DHT22;25568;37.410;-122.096;2023-12-04T07:56:45;19.10;86.60
33508;DHT22;25568;37.410;-122.096;2023-12-04T07:59:15;19.10;86.70
33508;DHT22;25568;37.410;-122.096;2023-12-04T08:01:44;19.00;86.50
33508;DHT22;25568;37.410;-122.096;2023-12-04T08:04:14;19.10;86.70
33508;DHT22;25568;37.410;-122.096;2023-12-04T08:06:43;19.10;86.70
33508;DHT22;25568;37.410;-122.096;2023-12-04T08:09:12;19.10;86.60
33508;DHT22;25568;37.410;-122.096;2023-12-04T08:11:43;19.10;86.60
33508;DHT22;25568;37.410;-122.096;2023-12-04T08:14:13;19.10;86.60
33508;DHT22;25568;37.410;-122.096;2023-12-04T08:16:42;19.10;86.50
33508;DHT22;25568;37.410;-122.096;2023-12-04T08:19:15;19.10;86.60
33508;DHT22;25568;37.410;-122.096;2023-12-04T08:21:45;19.10;86.60
33508;DHT22;25568;37.410;-122.096;2023-12-04T08:24:14;19.10;86.80
33508;DHT22;25568;37.410;-122.096;2023-12-04T08:26:47;19.10;86.90
33508;DHT22;25568;37.410;-122.096;2023-12-04T08:29:17;19.10;86.60
33508;DHT22;25568;37.410;-122.096;2023-12-04T08:31:47;19.10;86.80
33508;DHT22;25568;37.410;-122.096;2023-12-04T08:34:16;19.10;86.80
33508;DHT22;25568;37.410;-122.096;2023-12-04T08:36:46;19.10;86.90
33508;DHT22;25568;37.410;-122.096;2023-12-04T08:39:15;19.10;86.90
33508;DHT22;25568;37.410;-122.096;2023-12-04T08:41:48;19.10;87.00
33508;DHT22;25568;37.410;-122.096;2023-12-04T08:44:17;19.10;87.10
33508;DHT22;25568;37.410;-122.096;2023-12-04T08:46:47;19.10;87.00
33508;DHT22;25568;37.410;-122.096;2023-12-04T08:49:18;19.10;86.80
33508;DHT22;25568;37.410;-122.096;2023-12-04T08:51:47;19.10;87.10
33508;DHT22;25568;37.410;-122.096;2023-12-04T08:54:19;19.10;87.10
33508;DHT22;25568;37.410;-122.096;2023-12-04T08:56:53;19.10;87.20
33508;DHT22;25568;37.410;-122.096;2023-12-04T08:59:23;19.10;87.20
33508;DHT22;25568;37.410;-122.096;2023-12-04T09:02:00;19.10;87.40
33508;DHT22;25568;37.410;-122.096;2023-12-04T09:04:33;19.10;87.30
33508;DHT22;25568;37.410;-122.096;2023-12-04T09:07:08;19.10;87.30
33508;DHT22;25568;37.410;-122.096;2023-12-04T09:09:37;19.10;87.10
33508;DHT22;25568;37.410;-122.096;2023-12-04T09:12:11;19.10;87.40
33508;DHT22;25568;37.410;-122.096;2023-12-04T09:14:40;19.10;87.50
33508;DHT22;25568;37.410;-122.096;2023-12-04T09:17:10;19.00;87.40
33508;DHT22;25568;37.410;-122.096;2023-12-04T09:19:39;19.00;87.40
33508;DHT22;25568;37.410;-122.096;2023-12-04T09:22:08;19.00;87.50
33508;DHT22;25568;37.410;-122.096;2023-12-04T09:24:38;19.10;87.50
33508;DHT22;25568;37.410;-122.096;2023-12-04T09:27:09;19.10;87.40
33508;DHT22;25568;37.410;-122.096;2023-12-04T09:29:39;19.10;87.40
33508;DHT22;25568;37.410;-122.096;2023-12-04T09:32:09;19.00;87.40
33508;DHT22;25568;37.410;-122.096;2023-12-04T09:34:38;19.00;87.40
33508;DHT22;25568;37.410;-122.096;2023-12-04T09:37:08;19.10;87.40
33508;DHT22;25568;37.410;-122.096;2023-12-04T09:39:40;19.10;87.40
33508;DHT22;25568;37.410;-122.096;2023-12-04T09:42:14;19.10;87.40
33508;DHT22;25568;37.410;-122.096;2023-12-04T09:44:52;19.10;87.30
33508;DHT22;25568;37.410;-122.096;2023-12-04T09:47:24;19.00;87.30
33508;DHT22;25568;37.410;-122.096;2023-12-04T09:49:54;19.00;87.30
33508;DHT22;25568;37.410;-122.096;2023-12-04T09:52:27;19.00;87.60
33508;DHT22;25568;37.410;-122.096;2023-12-04T09:54:57;19.00;87.60
33508;DHT22;25568;37.410;-122.096;2023-12-04T09:57:29;19.00;87.50
33508;DHT22;25568;37.410;-122.096;2023-12-04T10:00:01;19.00;87.50
33508;DHT22;25568;37.410;-122.096;2023-12-04T10:02:31;19.00;87.30
33508;DHT22;25568;37.410;-122.096;2023-12-04T10:05:04;19.00;87.50
33508;DHT22;25568;37.410;-122.096;2023-12-04T10:07:40;19.00;87.60
33508;DHT22;25568;37.410;-122.096;2023-12-04T10:10:09;19.00;87.70
33508;DHT22;25568;37.410;-122.096;2023-12-04T10:12:44;19.00;87.90
33508;DHT22;25568;37.410;-122.096;2023-12-04T10:15:16;19.00;88.10
33508;DHT22;25568;37.410;-122.096;2023-12-04T10:17:45;18.90;87.70
33508;DHT22;25568;37.410;-122.096;2023-12-04T10:20:15;18.90;87.70
33508;DHT22;25568;37.410;-122.096;2023-12-04T10:23:00;19.00;87.60
33508;DHT22;25568;37.410;-122.096;2023-12-04T10:25:30;19.00;87.70
33508;DHT22;25568;37.410;-122.096;2023-12-04T10:28:12;19.00;87.80
33508;DHT22;25568;37.410;-122.096;2023-12-04T10:30:42;18.90;87.90
33508;DHT22;25568;37.410;-122.096;2023-12-04T10:33:13;18.90;87.60
33508;DHT22;25568;37.410;-122.096;2023-12-04T10:35:42;18.90;87.40
33508;DHT22;25568;37.410;-122.096;2023-12-04T10:38:12;18.90;87.60
33508;DHT22;25568;37.410;-122.096;2023-12-04T10:40:42;19.00;87.60
33508;DHT22;25568;37.410;-122.096;2023-12-04T10:43:15;18.90;87.60
33508;DHT22;25568;37.410;-122.096;2023-12-04T10:45:46;18.90;88.30
33508;DHT22;25568;37.410;-122.096;2023-12-04T10:48:16;19.00;88.90
33508;DHT22;25568;37.410;-122.096;2023-12-04T10:50:47;19.00;88.70
33508;DHT22;25568;37.410;-122.096;2023-12-04T10:53:17;19.00;88.70
33508;DHT22;25568;37.410;-122.096;2023-12-04T10:55:46;19.00;88.50
33508;DHT22;25568;37.410;-122.096;2023-12-04T10:58:20;19.00;88.40
33508;DHT22;25568;37.410;-122.096;2023-12-04T11:00:54;19.00;88.20
33508;DHT22;25568;37.410;-122.096;2023-12-04T11:03:28;19.00;88.30
33508;DHT22;25568;37.410;-122.096;2023-12-04T11:06:02;19.00;88.20
33508;DHT22;25568;37.410;-122.096;2023-12-04T11:08:35;19.00;87.90
33508;DHT22;25568;37.410;-122.096;2023-12-04T11:11:06;19.00;88.00
33508;DHT22;25568;37.410;-122.096;2023-12-04T11:13:41;19.00;87.70
33508;DHT22;25568;37.410;-122.096;2023-12-04T11:16:18;19.00;87.80
33508;DHT22;25568;37.410;-122.096;2023-12-04T11:19:06;19.00;87.60
33508;DHT22;25568;37.410;-122.096;2023-12-04T11:21:38;19.00;87.70
33508;DHT22;25568;37.410;-122.096;2023-12-04T11:24:08;19.00;87.60
33508;DHT22;25568;37.410;-122.096;2023-12-04T11:26:41;19.00;87.20
33508;DHT22;25568;37.410;-122.096;2023-12-04T11:29:13;19.00;87.30
33508;DHT22;25568;37.410;-122.096;2023-12-04T11:31:43;19.00;87.30
33508;DHT22;25568;37.410;-122.096;2023-12-04T11:34:16;19.00;87.30
33508;DHT22;25568;37.410;-122.096;2023-12-04T11:36:45;19.00;87.10
33508;DHT22;25568;37.410;-122.096;2023-12-04T11:39:15;19.00;87.00
33508;DHT22;25568;37.410;-122.096;2023-12-04T11:41:51;19.00;86.90
33508;DHT22;25568;37.410;-122.096;2023-12-04T11:44:22;19.00;87.00
33508;DHT22;25568;37.410;-122.096;2023-12-04T11:47:04;19.00;87.00
33508;DHT22;25568;37.410;-122.096;2023-12-04T11:49:34;19.00;87.00
33508;DHT22;25568;37.410;-122.096;2023-12-04T11:52:05;18.90;86.70
33508;DHT22;25568;37.410;-122.096;2023-12-04T11:54:58;18.90;86.80
33508;DHT22;25568;37.410;-122.096;2023-12-04T11:57:33;18.90;86.70
33508;DHT22;25568;37.410;-122.096;2023-12-04T12:00:13;18.90;86.60
33508;DHT22;25568;37.410;-122.096;2023-12-04T12:02:48;18.90;86.60
33508;DHT22;25568;37.410;-122.096;2023-12-04T12:05:18;18.90;86.80
33508;DHT22;25568;37.410;-122.096;2023-12-04T12:07:48;18.90;86.80
33508;DHT22;25568;37.410;-122.096;2023-12-04T12:10:17;18.90;87.20
33508;DHT22;25568;37.410;-122.096;2023-12-04T12:12:47;18.90;86.90
33508;DHT22;25568;37.410;-122.096;2023-12-04T12:15:19;18.90;87.10
33508;DHT22;25568;37.410;-122.096;2023-12-04T12:17:50;18.90;86.90
33508;DHT22;25568;37.410;-122.096;2023-12-04T12:20:20;18.90;87.40
33508;DHT22;25568;37.410;-122.096;2023-12-04T12:22:49;18.90;86.90
33508;DHT22;25568;37.410;-122.096;2023-12-04T12:25:19;18.90;87.10
33508;DHT22;25568;37.410;-122.096;2023-12-04T12:27:50;18.90;86.80
33508;DHT22;25568;37.410;-122.096;2023-12-04T12:30:21;18.90;86.90
33508;DHT22;25568;37.410;-122.096;2023-12-04T12:32:51;18.90;87.00
33508;DHT22;25568;37.410;-122.096;2023-12-04T12:35:20;18.80;86.70
33508;DHT22;25568;37.410;-122.096;2023-12-04T12:37:51;18.90;86.90
33508;DHT22;25568;37.410;-122.096;2023-12-04T12:40:22;18.90;86.90
33508;DHT22;25568;37.410;-122.096;2023-12-04T12:42:51;18.90;86.90
33508;DHT22;25568;37.410;-122.096;2023-12-04T12:45:23;18.80;86.80
33508;DHT22;25568;37.410;-122.096;2023-12-04T12:47:52;18.80;86.80
33508;DHT22;25568;37.410;-122.096;2023-12-04T12:50:21;18.80;86.90
33508;DHT22;25568;37.410;-122.096;2023-12-04T12:52:51;18.80;86.90
33508;DHT22;25568;37.410;-122.096;2023-12-04T12:55:24;18.80;87.10
33508;DHT22;25568;37.410;-122.096;2023-12-04T12:57:56;18.80;87.10
33508;DHT22;25568;37.410;-122.096;2023-12-04T13:00:27;18.80;87.20
33508;DHT22;25568;37.410;-122.096;2023-12-04T13:03:03;18.80;87.30
33508;DHT22;25568;37.410;-122.096;2023-12-04T13:05:33;18.80;87.10
33508;DHT22;25568;37.410;-122.096;2023-12-04T13:08:03;18.80;87.20
33508;DHT22;25568;37.410;-122.096;2023-12-04T13:10:37;18.80;87.10
33508;DHT22;25568;37.410;-122.096;2023-12-04T13:13:10;18.80;87.30
33508;DHT22;25568;37.410;-122.096;2023-12-04T13:15:41;18.80;87.20
33508;DHT22;25568;37.410;-122.096;2023-12-04T13:18:10;18.80;87.40
33508;DHT22;25568;37.410;-122.096;2023-12-04T13:20:40;18.70;87.20
33508;DHT22;25568;37.410;-122.096;2023-12-04T13:23:10;18.70;87.20
33508;DHT22;25568;37.410;-122.096;2023-12-04T13:25:43;18.70;87.30
33508;DHT22;25568;37.410;-122.096;2023-12-04T13:28:14;18.70;87.30
33508;DHT22;25568;37.410;-122.096;2023-12-04T13:30:45;18.70;87.50
33508;DHT22;25568;37.410;-122.096;2023-12-04T13:33:15;18.70;87.40
33508;DHT22;25568;37.410;-122.096;2023-12-04T13:35:44;18.70;87.50
33508;DHT22;25568;37.410;-122.096;2023-12-04T13:38:15;18.70;87.60
33508;DHT22;25568;37.410;-122.096;2023-12-04T13:40:45;18.70;87.50
33508;DHT22;25568;37.410;-122.096;2023-12-04T13:43:27;18.70;87.50
33508;DHT22;25568;37.410;-122.096;2023-12-04T13:46:14;18.70;87.40
33508;DHT22;25568;37.410;-122.096;2023-12-04T13:48:44;18.70;87.40
33508;DHT22;25568;37.410;-122.096;2023-12-04T13:51:14;18.80;87.50
33508;DHT22;25568;37.410;-122.096;2023-12-04T13:53:44;18.70;87.40
33508;DHT22;25568;37.410;-122.096;2023-12-04T13:56:16;18.80;87.60
33508;DHT22;25568;37.410;-122.096;2023-12-04T13:59:08;18.70;87.60
33508;DHT22;25568;37.410;-122.096;2023-12-04T14:01:47;18.70;87.80
33508;DHT22;25568;37.410;-122.096;2023-12-04T14:04:18;18.70;88.00
33508;DHT22;25568;37.410;-122.096;2023-12-04T14:06:50;18.70;87.90
33508;DHT22;25568;37.410;-122.096;2023-12-04T14:09:20;18.70;87.90
33508;DHT22;25568;37.410;-122.096;2023-12-04T14:11:49;18.70;87.90
33508;DHT22;25568;37.410;-122.096;2023-12-04T14:14:19;18.70;88.10
33508;DHT22;25568;37.410;-122.096;2023-12-04T14:16:58;18.70;87.90
33508;DHT22;25568;37.410;-122.096;2023-12-04T14:19:30;18.70;88.20
33508;DHT22;25568;37.410;-122.096;2023-12-04T14:22:00;18.70;88.10
33508;DHT22;25568;37.410;-122.096;2023-12-04T14:24:30;18.70;88.10
33508;DHT22;25568;37.410;-122.096;2023-12-04T14:27:00;18.70;88.20
33508;DHT22;25568;37.410;-122.096;2023-12-04T14:29:33;18.60;88.20
33508;DHT22;25568;37.410;-122.096;2023-12-04T14:32:04;18.60;88.40
33508;DHT22;25568;37.410;-122.096;2023-12-04T14:34:34;18.60;88.20
33508;DHT22;25568;37.410;-122.096;2023-12-04T14:37:06;18.60;88.30
33508;DHT22;25568;37.410;-122.096;2023-12-04T14:39:36;18.70;88.80
33508;DHT22;25568;37.410;-122.096;2023-12-04T14:42:08;18.70;88.40
33508;DHT22;25568;37.410;-122.096;2023-12-04T14:44:38;18.60;88.30
33508;DHT22;25568;37.410;-122.096;2023-12-04T14:47:09;18.60;88.40
33508;DHT22;25568;37.410;-122.096;2023-12-04T14:49:39;18.60;88.30
33508;DHT22;25568;37.410;-122.096;2023-12-04T14:52:08;18.60;88.40
33508;DHT22;25568;37.410;-122.096;2023-12-04T14:54:38;18.60;88.30
33508;DHT22;25568;37.410;-122.096;2023-12-04T14:57:19;18.60;88.20
33508;DHT22;25568;37.410;-122.096;2023-12-04T15:00:14;18.50;88.10
33508;DHT22;25568;37.410;-122.096;2023-12-04T15:03:04;18.50;87.70
33508;DHT22;25568;37.410;-122.096;2023-12-04T15:05:52;18.50;87.60
33508;DHT22;25568;37.410;-122.096;2023-12-04T15:08:35;18.50;86.90
33508;DHT22;25568;37.410;-122.096;2023-12-04T15:11:23;18.50;87.30
33508;DHT22;25568;37.410;-122.096;2023-12-04T15:14:10;18.50;87.70
33508;DHT22;25568;37.410;-122.096;2023-12-04T15:16:51;18.50;87.50
33508;DHT22;25568;37.410;-122.096;2023-12-04T15:19:30;18.40;87.40
33508;DHT22;25568;37.410;-122.096;2023-12-04T15:22:05;18.40;86.90
33508;DHT22;25568;37.410;-122.096;2023-12-04T15:24:36;18.40;86.50
33508;DHT22;25568;37.410;-122.096;2023-12-04T15:27:06;18.30;86.30
33508;DHT22;25568;37.410;-122.096;2023-12-04T15:29:43;18.30;86.20
33508;DHT22;25568;37.410;-122.096;2023-12-04T15:32:13;18.30;86.10
33508;DHT22;25568;37.410;-122.096;2023-12-04T15:34:43;18.30;86.00
33508;DHT22;25568;37.410;-122.096;2023-12-04T15:37:12;18.30;85.90
33508;DHT22;25568;37.410;-122.096;2023-12-04T15:39:40;18.30;85.70
33508;DHT22;25568;37.410;-122.096;2023-12-04T15:42:13;18.30;86.30
33508;DHT22;25568;37.410;-122.096;2023-12-04T15:44:44;18.30;86.40
33508;DHT22;25568;37.410;-122.096;2023-12-04T15:47:13;18.30;86.30
33508;DHT22;25568;37.410;-122.096;2023-12-04T15:49:44;18.20;86.50
33508;DHT22;25568;37.410;-122.096;2023-12-04T15:52:13;18.20;86.60
33508;DHT22;25568;37.410;-122.096;2023-12-04T15:54:41;18.30;86.50
33508;DHT22;25568;37.410;-122.096;2023-12-04T15:57:13;18.20;86.60
33508;DHT22;25568;37.410;-122.096;2023-12-04T15:59:43;18.20;86.50
33508;DHT22;25568;37.410;-122.096;2023-12-04T16:02:13;18.20;86.60
33508;DHT22;25568;37.410;-122.096;2023-12-04T16:04:44;18.20;86.70
33508;DHT22;25568;37.410;-122.096;2023-12-04T16:07:14;18.20;86.40
33508;DHT22;25568;37.410;-122.096;2023-12-04T16:09:45;18.20;86.60
33508;DHT22;25568;37.410;-122.096;2023-12-04T16:12:15;18.20;86.80